Terminal Aerodrome Forecast
Issued by NWS

Home | Current Version | Previous Version | Text Only | Print | Product List | Glossary On
Versions: 1 2 3 4 5 6 7 8 9 10 11 12 13 14 15 16 17 18 19 20 21
000
FTUS46 KSTO 192351
TAFRDD
TAF
KRDD 192351Z 2000/2024 17024G32KT P6SM -RA OVC025
     FM200100 15016G26KT P6SM -RA OVC015
     FM201000 18020G30KT P6SM -RA OVC010
     FM201500 18025G35KT 4SM RA OVC008
     FM201800 19015G25KT 4SM RA OVC015
     FM202100 18025G38KT 4SM RA OVC015=

USA.gov is the U.S. government's official web portal to all federal, state and local government web resources and services.